PDT,Max TemperatureF,Mean TemperatureF,Min TemperatureF,Max Dew PointF,MeanDew PointF,Min DewpointF,Max Humidity, Mean Humidity, Min Humidity, Max Sea Level PressureIn, Mean Sea Level PressureIn, Min Sea Level PressureIn, Max VisibilityMiles, Mean VisibilityMiles, Min VisibilityMiles, Max Wind SpeedMPH, Mean Wind SpeedMPH, Max Gust SpeedMPH,PrecipitationIn, CloudCover, Events, WindDirDegrees
2012-8-1,65,60,54,51,49,48,86,73,58,30.27,30.24,30.21,10,10,9,12,4,16,0.00,6,,321
2012-8-2,69,62,54,58,54,51,100,87,64,30.21,30.18,30.15,10,6,1,14,3,20,T,8,Rain,298
2012-8-3,80,66,52,57,53,51,96,79,36,30.15,30.09,29.97,10,6,0,16,5,21,0.00,4,Fog,334
2012-8-4,95,73,51,60,55,49,89,57,19,29.96,29.90,29.82,10,10,10,10,4,14,0.00,0,,287
2012-8-5,68,63,58,57,56,55,97,83,65,30.03,29.96,29.86,10,7,1,14,5,18,0.00,5,,194
2012-8-6,64,62,59,59,57,55,100,87,75,30.14,30.09,30.03,10,9,2,12,4,17,T,8,,174
2012-8-7,66,62,58,59,57,54,93,85,61,30.12,30.09,30.07,10,8,2,12,3,15,0.01,8,Rain,214
2012-8-8,67,61,55,57,55,54,94,83,68,30.25,30.17,30.09,10,10,6,12,4,15,T,8,Rain,203
2012-8-9,69,60,50,56,51,48,100,84,53,30.24,30.20,30.15,10,5,0,17,4,23,0.00,4,Fog,329
2012-8-10,67,60,53,56,53,51,96,85,62,30.16,30.13,30.09,8,4,0,12,3,16,0.00,6,Fog,260
2012-8-11,74,63,51,57,52,49,97,79,44,30.11,30.07,30.01,8,5,0,14,4,20,0.00,2,Fog,309
2012-8-12,79,66,52,60,54,50,97,81,38,30.01,30.00,29.97,10,5,0,14,4,18,0.00,3,Fog,315
2012-8-13,70,62,53,55,53,50,100,84,46,30.10,30.06,30.00,8,4,0,13,4,18,0.00,6,Fog,332
2012-8-14,67,61,55,59,56,54,100,90,71,30.05,30.00,29.94,10,3,0,10,4,14,0.00,8,Fog,328
2012-8-15,91,72,53,57,51,47,100,63,15,29.95,29.92,29.87,10,6,0,24,8,31,0.00,1,Fog,24
2012-8-16,89,72,54,57,53,50,94,60,22,29.95,29.91,29.89,10,10,9,12,4,13,0.00,0,,234
2012-8-17,68,61,53,57,54,52,94,87,65,30.01,29.98,29.95,10,4,0,13,4,16,0.00,7,Fog,202
2012-8-18,62,60,57,58,57,55,94,91,82,30.01,29.98,29.92,10,5,1,8,1,10,0.02,8,Rain-Thunderstorm,247
2012-8-19,70,62,53,56,54,51,94,81,48,30.06,30.03,29.98,10,6,0,12,3,14,0.00,5,Fog,255
2012-8-20,70,61,51,56,54,49,100,86,51,30.06,30.04,30.00,10,4,0,13,3,15,0.00,5,Fog,229
2012-8-21,66,58,50,55,53,48,100,85,51,30.08,30.03,29.98,10,6,0,12,3,17,T,7,Fog-Rain,263
2012-8-22,68,60,51,54,51,48,94,79,41,30.13,30.11,30.08,10,8,5,13,3,17,T,6,Rain,285
2012-8-23,66,60,53,52,49,46,94,73,52,30.15,30.12,30.08,10,9,2,16,6,22,0.01,6,Rain,300
2012-8-24,67,59,50,52,50,46,94,73,46,30.20,30.15,30.03,10,9,6,13,5,18,T,4,,303
2012-8-25,71,57,43,52,47,41,90,70,38,30.01,29.86,29.77,10,10,7,12,3,13,0.00,0,,250
2012-8-26,66,59,51,54,52,46,97,86,60,29.93,29.81,29.76,10,5,0,17,6,24,0.11,7,Fog-Rain,153
2012-8-27,65,58,50,55,52,47,94,83,56,30.07,30.02,29.93,10,7,1,14,5,23,0.05,6,Rain,170
2012-8-28,65,58,51,55,52,48,94,85,71,30.07,30.05,30.03,8,7,4,12,4,17,0.02,8,Rain,160
2012-8-29,65,58,51,59,55,50,94,87,56,30.14,30.11,30.08,10,5,0,10,3,14,0.28,7,Fog-Rain,204
2012-8-30,66,56,46,55,50,44,94,84,50,30.07,30.02,29.96,10,6,1,14,4,20,0.02,6,Rain,85
2012-8-31,65,55,45,51,46,43,93,82,55,30.04,29.98,29.95,10,8,2,14,3,16,0.00,4,,271